Time;durP1;ratioP1;P1;durP2;ratioP2;P2;SDS_P1;SDS_P2;PMS_P1;PMS_P2;Temp;Humidity;BMP_temperature;BMP_pressure;BME280_temperature;BME280_humidity;BME280_pressure;Samples;Min_cycle;Max_cycle;Signal;HPM_P1;HPM_P2
2021/12/17 00:00:56;;;;;;;23.48;11.13;;;;;;;5.32;100.00;102182.03;5111362;28;20015;-64
2021/12/17 00:03:33;;;;;;;21.90;11.30;;;;;;;5.35;100.00;102187.38;5107736;28;20031;-64
2021/12/17 00:08:40;;;;;;;20.60;11.27;;;;;;;5.36;100.00;102181.28;5091961;28;20024;-64
2021/12/17 00:11:06;;;;;;;22.33;11.38;;;;;;;5.35;100.00;102181.25;5097161;28;20558;-64
2021/12/17 00:13:33;;;;;;;25.73;12.30;;;;;;;5.35;100.00;102182.09;5111172;28;20110;-64
2021/12/17 00:16:00;;;;;;;21.48;11.07;;;;;;;5.40;100.00;102180.47;5110907;28;20055;-64
2021/12/17 00:18:38;;;;;;;20.50;11.50;;;;;;;5.40;100.00;102179.59;5100971;28;20395;-64
2021/12/17 00:40:31;;;;;;;26.23;11.73;;;;;;;5.46;100.00;102174.44;5110397;28;20108;-64
2021/12/17 00:48:38;;;;;;;18.92;10.43;;;;;;;5.54;100.00;102161.41;5108592;28;19919;-64
2021/12/17 00:53:40;;;;;;;29.08;13.98;;;;;;;5.64;100.00;102176.59;5110353;28;20027;-64
2021/12/17 00:56:06;;;;;;;22.20;11.85;;;;;;;5.63;100.00;102164.25;5100793;28;20045;-64
2021/12/17 00:58:31;;;;;;;24.10;11.32;;;;;;;5.64;100.00;102160.75;5110789;28;20471;-64
2021/12/17 01:00:56;;;;;;;21.98;11.55;;;;;;;5.61;100.00;102164.22;5110795;28;20046;-64
2021/12/17 01:03:22;;;;;;;23.75;12.32;;;;;;;5.57;100.00;102149.16;5111022;28;20020;-64
2021/12/17 01:05:48;;;;;;;21.58;10.93;;;;;;;5.74;100.00;102165.38;5101038;28;20028;-64
2021/12/17 01:08:14;;;;;;;21.33;10.52;;;;;;;5.82;100.00;102159.44;5110498;28;20028;-64
2021/12/17 01:10:50;;;;;;;22.48;11.45;;;;;;;5.70;100.00;102158.25;5110141;28;20024;-64
2021/12/17 01:13:16;;;;;;;23.27;12.60;;;;;;;5.63;100.00;102153.69;5104648;28;20028;-64
2021/12/17 01:15:43;;;;;;;25.75;11.48;;;;;;;5.56;100.00;102142.13;5099519;28;20051;-64
2021/12/17 01:18:14;;;;;;;26.00;10.77;;;;;;;5.56;100.00;102147.41;5097712;28;20056;-64
2021/12/17 01:23:43;;;;;;;21.30;11.57;;;;;;;5.65;100.00;102154.63;5112167;28;20031;-64
2021/12/17 01:36:40;;;;;;;19.98;10.43;;;;;;;5.82;100.00;102154.16;5107938;28;20035;-64
2021/12/17 01:44:20;;;;;;;21.60;11.80;;;;;;;5.83;100.00;102140.06;5108850;28;20105;-64
2021/12/17 01:46:50;;;;;;;22.33;10.52;;;;;;;5.93;100.00;102154.38;5109867;28;20024;-64
2021/12/17 02:00:00;;;;;;;19.33;9.95;;;;;;;5.87;100.00;102141.03;5114468;28;20055;-64
2021/12/17 02:02:28;;;;;;;22.98;11.43;;;;;;;5.95;100.00;102129.78;5105213;28;20785;-64
2021/12/17 02:04:53;;;;;;;19.05;9.73;;;;;;;5.89;100.00;102134.94;5113195;28;20015;-64
2021/12/17 02:07:19;;;;;;;23.33;10.45;;;;;;;5.84;100.00;102127.78;5113529;28;20521;-64
2021/12/17 02:28:44;;;;;;;20.77;9.18;;;;;;;5.48;100.00;102119.06;5095231;28;20044;-64
2021/12/17 02:31:32;;;;;;;17.00;9.65;;;;;;;5.33;100.00;102119.63;5106966;28;20032;-64
2021/12/17 02:34:22;;;;;;;18.67;10.57;;;;;;;5.32;100.00;102121.34;5099847;27;20032;-64
2021/12/17 02:36:49;;;;;;;18.35;9.10;;;;;;;5.30;100.00;102120.44;5097182;28;20012;-65
2021/12/17 02:47:11;;;;;;;19.80;10.63;;;;;;;5.59;100.00;102106.97;5092709;28;20034;-64
2021/12/17 02:49:41;;;;;;;18.80;10.18;;;;;;;5.64;100.00;102105.31;5094598;28;20391;-64
2021/12/17 02:52:06;;;;;;;20.88;10.00;;;;;;;5.72;100.00;102101.06;5104509;28;20019;-64
2021/12/17 02:54:34;;;;;;;21.10;10.63;;;;;;;5.77;100.00;102097.69;5111920;28;20023;-64
2021/12/17 02:57:00;;;;;;;21.35;10.30;;;;;;;5.81;100.00;102098.63;5102714;28;20031;-65
2021/12/17 02:59:26;;;;;;;22.85;10.30;;;;;;;5.77;100.00;102092.41;5094255;28;20024;-64
2021/12/17 03:01:52;;;;;;;22.67;11.52;;;;;;;5.96;100.00;102091.06;5092080;28;20545;-64
2021/12/17 03:04:18;;;;;;;16.55;9.07;;;;;;;6.04;100.00;102089.44;5092463;28;20024;-64
2021/12/17 03:06:45;;;;;;;20.65;10.18;;;;;;;6.07;100.00;102089.50;5106769;28;20114;-64
2021/12/17 03:09:11;;;;;;;22.77;10.82;;;;;;;6.01;100.00;102086.75;5111924;28;20614;-64
2021/12/17 03:11:37;;;;;;;25.05;9.93;;;;;;;6.09;100.00;102087.78;5102149;28;20112;-64
2021/12/17 03:14:02;;;;;;;19.33;9.43;;;;;;;6.06;100.00;102077.16;5091782;28;20481;-64
2021/12/17 03:16:37;;;;;;;17.90;9.27;;;;;;;5.96;100.00;102056.72;5091337;28;20028;-64
2021/12/17 03:24:18;;;;;;;19.65;9.05;;;;;;;6.09;100.00;102082.50;5109852;28;20402;-64
2021/12/17 03:26:45;;;;;;;16.90;8.40;;;;;;;6.12;100.00;102074.63;5108538;28;20024;-64
2021/12/17 03:29:11;;;;;;;19.08;8.18;;;;;;;6.05;100.00;102072.72;5111768;28;20031;-64
2021/12/17 03:31:37;;;;;;;19.80;9.13;;;;;;;6.02;100.00;102070.03;5109376;28;20032;-64
2021/12/17 03:34:19;;;;;;;16.10;8.43;;;;;;;6.10;100.00;102073.69;5095948;28;20606;-64
2021/12/17 03:36:47;;;;;;;17.65;8.30;;;;;;;6.23;100.00;102079.22;5091095;28;20111;-64
2021/12/17 03:39:14;;;;;;;16.65;8.48;;;;;;;6.26;100.00;102067.84;5112286;28;20031;-64
2021/12/17 03:41:46;;;;;;;17.42;9.05;;;;;;;6.32;100.00;102073.22;5103535;28;20027;-64
2021/12/17 03:44:11;;;;;;;17.75;8.80;;;;;;;6.30;100.00;102072.31;5110921;28;20512;-64
2021/12/17 03:46:37;;;;;;;16.52;8.20;;;;;;;6.17;100.00;102071.22;5111541;28;20024;-65
2021/12/17 03:49:03;;;;;;;17.58;8.52;;;;;;;6.21;100.00;102080.09;5112249;28;20119;-64
2021/12/17 03:51:29;;;;;;;18.73;8.60;;;;;;;6.27;100.00;102077.53;5101372;28;20632;-64
2021/12/17 03:53:56;;;;;;;24.50;8.88;;;;;;;6.28;100.00;102077.56;5111978;28;20032;-64
2021/12/17 03:56:24;;;;;;;15.52;8.50;;;;;;;6.35;100.00;102070.63;5110230;28;20028;-64
2021/12/17 03:58:52;;;;;;;16.52;7.22;;;;;;;6.36;100.00;102072.41;5108409;28;20080;-65
2021/12/17 04:01:17;;;;;;;15.52;7.13;;;;;;;6.34;100.00;102068.88;5097509;28;20479;-64
2021/12/17 04:03:43;;;;;;;19.75;8.32;;;;;;;6.38;100.00;102068.94;5091204;28;20028;-64
2021/12/17 04:06:08;;;;;;;16.08;7.68;;;;;;;6.36;100.00;102067.09;5091465;28;20501;-64
2021/12/17 04:08:34;;;;;;;12.55;6.40;;;;;;;6.40;100.00;102076.88;5096304;28;20027;-65
2021/12/17 04:11:07;;;;;;;15.10;7.88;;;;;;;6.49;100.00;102077.06;5111331;27;20050;-65
2021/12/17 04:13:36;;;;;;;13.65;6.70;;;;;;;6.47;100.00;102078.78;5106826;28;20031;-64
2021/12/17 04:16:07;;;;;;;16.40;7.35;;;;;;;6.45;100.00;102075.22;5099699;28;20040;-64
2021/12/17 04:18:34;;;;;;;17.27;8.88;;;;;;;6.41;100.00;102070.72;5092373;28;20463;-64
2021/12/17 04:21:02;;;;;;;17.48;7.93;;;;;;;6.45;100.00;102069.91;5101365;28;20032;-64
2021/12/17 04:23:28;;;;;;;18.33;8.07;;;;;;;6.53;100.00;102074.47;5110747;28;20055;-65
2021/12/17 04:25:53;;;;;;;18.63;8.52;;;;;;;6.53;100.00;102068.28;5111408;28;20693;-65
2021/12/17 04:28:20;;;;;;;22.48;9.18;;;;;;;6.56;100.00;102074.53;5106179;28;20112;-65
2021/12/17 04:30:47;;;;;;;21.38;9.07;;;;;;;6.58;100.00;102075.44;5106617;28;20020;-65
2021/12/17 04:33:13;;;;;;;23.17;9.38;;;;;;;6.50;100.00;102063.88;5109557;28;20589;-64
2021/12/17 04:35:39;;;;;;;21.15;8.57;;;;;;;6.56;100.00;102079.81;5099638;28;20020;-65
2021/12/17 04:38:07;;;;;;;18.33;8.27;;;;;;;6.59;100.00;102076.31;5110238;28;20042;-64
2021/12/17 04:40:32;;;;;;;19.27;10.30;;;;;;;6.57;100.00;102076.28;5109658;28;20028;-65
2021/12/17 04:43:11;;;;;;;17.23;7.55;;;;;;;6.55;100.00;102082.44;5109107;28;20110;-65
2021/12/17 04:45:42;;;;;;;15.38;7.97;;;;;;;6.53;100.00;102078.88;5103734;28;20061;-64
2021/12/17 04:59:06;;;;;;;;;;;;;;;6.70;100.00;102077.41;5114988;28;20042;-65
2021/12/17 05:01:33;;;;;;;16.20;8.40;;;;;;;6.63;100.00;102071.13;5111533;28;19966;-64
2021/12/17 05:03:58;;;;;;;15.27;8.05;;;;;;;6.68;100.00;102080.03;5114806;28;20491;-64
2021/12/17 05:06:28;;;;;;;14.57;7.80;;;;;;;6.69;100.00;102071.22;5115137;28;20107;-65
2021/12/17 05:08:59;;;;;;;16.90;8.95;;;;;;;6.60;100.00;102067.53;5112749;28;20070;-65
2021/12/17 05:11:48;;;;;;;19.15;9.20;;;;;;;6.68;100.00;102064.16;5106169;28;20028;-65
2021/12/17 05:19:53;;;;;;;17.88;8.40;;;;;;;6.74;100.00;102062.47;5110276;28;20517;-65
2021/12/17 05:22:19;;;;;;;17.42;7.95;;;;;;;6.74;100.00;102067.75;5106953;28;20121;-65
2021/12/17 05:24:45;;;;;;;16.13;7.90;;;;;;;6.66;100.00;102055.31;5096462;28;20059;-65
2021/12/17 05:27:11;;;;;;;16.48;8.82;;;;;;;6.67;100.00;102045.63;5099220;28;20051;-65
2021/12/17 05:29:36;;;;;;;19.52;9.75;;;;;;;6.74;100.00;102058.06;5093547;28;20662;-65
2021/12/17 05:32:03;;;;;;;15.75;8.38;;;;;;;6.80;100.00;102070.50;5094464;28;20038;-65
2021/12/17 05:34:29;;;;;;;19.52;9.35;;;;;;;6.72;100.00;102058.03;5096735;28;20440;-65
2021/12/17 05:36:54;;;;;;;20.77;9.55;;;;;;;6.75;100.00;102049.28;5099428;28;20031;-65
2021/12/17 05:39:20;;;;;;;17.85;9.02;;;;;;;6.74;100.00;102051.91;5112127;28;20106;-65
2021/12/17 05:41:48;;;;;;;17.60;8.30;;;;;;;6.67;100.00;102048.28;5105305;28;20027;-65
2021/12/17 05:44:15;;;;;;;21.25;9.30;;;;;;;6.61;100.00;102045.50;5113484;28;20040;-65
2021/12/17 05:46:50;;;;;;;23.45;10.25;;;;;;;6.50;100.00;102042.72;5102892;28;20028;-65
2021/12/17 05:49:25;;;;;;;17.95;8.43;;;;;;;6.55;100.00;102045.41;5113886;28;20520;-65
2021/12/17 05:51:51;;;;;;;15.25;8.20;;;;;;;6.52;100.00;102055.94;5108556;28;20392;-65
2021/12/17 05:54:18;;;;;;;17.23;8.73;;;;;;;6.49;100.00;102051.50;5105183;28;20024;-65
2021/12/17 05:56:43;;;;;;;18.70;9.50;;;;;;;6.59;100.00;102052.53;5093065;28;20583;-65
2021/12/17 05:59:09;;;;;;;17.77;8.65;;;;;;;6.57;100.00;102054.28;5093213;28;20028;-64
2021/12/17 06:01:35;;;;;;;17.77;8.23;;;;;;;6.54;100.00;102055.09;5101719;27;20028;-65
2021/12/17 06:04:01;;;;;;;15.98;8.27;;;;;;;6.48;100.00;102043.53;5113783;28;20019;-65
2021/12/17 06:06:29;;;;;;;16.48;8.70;;;;;;;6.55;100.00;102048.06;5111082;28;20820;-65
2021/12/17 06:08:55;;;;;;;18.38;8.07;;;;;;;6.56;100.00;102049.81;5105429;28;20031;-65
2021/12/17 06:11:20;;;;;;;18.60;9.68;;;;;;;6.59;100.00;102056.06;5113331;28;20023;-65
2021/12/17 06:13:46;;;;;;;25.05;10.32;;;;;;;6.66;100.00;102051.75;5114014;28;20023;-65
2021/12/17 06:16:11;;;;;;;18.13;9.65;;;;;;;6.67;100.00;102051.78;5108835;28;20469;-65
2021/12/17 06:18:37;;;;;;;20.50;9.40;;;;;;;6.71;100.00;102060.66;5106788;28;20660;-65
2021/12/17 06:21:02;;;;;;;17.92;9.43;;;;;;;6.65;100.00;102064.06;5112808;28;20023;-65
2021/12/17 06:23:27;;;;;;;27.58;9.57;;;;;;;6.66;100.00;102070.25;5100134;28;20038;-65
2021/12/17 06:25:53;;;;;;;21.33;8.90;;;;;;;6.65;100.00;102071.16;5091571;28;20012;-65
2021/12/17 06:28:19;;;;;;;16.75;8.80;;;;;;;6.63;100.00;102075.50;5092944;28;20027;-65
2021/12/17 06:30:44;;;;;;;18.77;8.90;;;;;;;6.71;100.00;102076.53;5094381;28;20035;-65
2021/12/17 06:33:10;;;;;;;16.45;8.23;;;;;;;6.65;100.00;102079.06;5104971;28;20448;-65
2021/12/17 06:35:36;;;;;;;18.83;9.18;;;;;;;6.49;100.00;102070.00;5109865;28;20031;-64
2021/12/17 06:38:04;;;;;;;18.95;7.97;;;;;;;6.52;100.00;102088.53;5109300;28;20020;-65
2021/12/17 06:40:29;;;;;;;17.48;7.63;;;;;;;6.47;100.00;102094.63;5113431;28;20479;-65
2021/12/17 06:42:55;;;;;;;20.77;8.18;;;;;;;6.37;100.00;102092.69;5102029;28;20024;-65
2021/12/17 06:45:36;;;;;;;19.13;9.73;;;;;;;6.30;100.00;102096.09;5112719;28;20360;-65
2021/12/17 06:48:02;;;;;;;39.70;10.52;;;;;;;6.22;100.00;102098.59;5112289;28;20093;-65
2021/12/17 06:56:59;;;;;;;18.70;8.98;;;;;;;6.01;100.00;102103.47;5112170;28;20568;-64
2021/12/17 07:07:46;;;;;;;15.40;8.20;;;;;;;5.64;100.00;102113.22;5101908;28;20548;-65
2021/12/17 07:10:12;;;;;;;21.17;8.52;;;;;;;5.74;100.00;102112.56;5112590;28;20035;-63
2021/12/17 07:17:56;;;;;;;15.73;7.50;;;;;;;5.54;100.00;102125.34;5096855;28;20564;-63
2021/12/17 07:23:13;;;;;;;16.45;8.07;;;;;;;5.53;100.00;102136.78;5111247;28;20048;-63
2021/12/17 07:33:47;;;;;;;14.48;8.35;;;;;;;5.49;100.00;102158.69;5112323;28;20115;-63
2021/12/17 07:36:16;;;;;;;17.17;7.47;;;;;;;5.43;100.00;102155.00;5111971;28;20028;-63
2021/12/17 07:38:49;;;;;;;18.80;10.40;;;;;;;5.63;100.00;102164.25;5111312;28;20028;-63
2021/12/17 07:41:16;;;;;;;19.35;9.88;;;;;;;5.53;100.00;102159.63;5099183;28;20415;-64
2021/12/17 07:43:54;;;;;;;20.17;11.02;;;;;;;5.44;100.00;102156.81;5091437;28;20127;-64
2021/12/17 07:46:21;;;;;;;22.73;11.85;;;;;;;5.36;100.00;102161.91;5090819;28;20024;-64
2021/12/17 07:48:47;;;;;;;15.48;9.50;;;;;;;5.32;100.00;102160.06;5094265;28;20036;-64
2021/12/17 07:51:15;;;;;;;19.88;10.20;;;;;;;5.23;100.00;102166.03;5096167;28;20093;-64
2021/12/17 07:53:41;;;;;;;24.30;14.02;;;;;;;5.23;100.00;102171.28;5110966;28;20055;-64
2021/12/17 07:56:11;;;;;;;26.70;12.95;;;;;;;5.15;100.00;102170.22;5105277;28;20012;-64
2021/12/17 07:58:38;;;;;;;20.40;11.75;;;;;;;5.05;100.00;102151.50;5107336;28;20058;-64
2021/12/17 08:01:04;;;;;;;17.80;11.32;;;;;;;5.06;100.00;102153.28;5111048;28;20027;-64
2021/12/17 08:03:30;;;;;;;24.00;11.45;;;;;;;5.09;100.00;102156.88;5105842;28;20036;-64
2021/12/17 08:05:55;;;;;;;19.15;11.10;;;;;;;5.18;100.00;102172.03;5090714;28;20034;-64
2021/12/17 08:08:21;;;;;;;21.25;11.20;;;;;;;5.15;100.00;102164.94;5093664;28;20382;-64
2021/12/17 08:10:47;;;;;;;24.95;11.13;;;;;;;5.11;100.00;102168.34;5108840;28;20031;-64
2021/12/17 08:13:21;;;;;;;21.45;11.10;;;;;;;5.16;100.00;102177.28;5107398;28;20025;-64
2021/12/17 08:16:17;;;;;;;18.77;10.77;;;;;;;5.10;100.00;102156.03;5104396;28;20448;-64
2021/12/17 08:32:07;;;;;;;25.67;12.43;;;;;;;5.51;100.00;102178.09;5110431;28;20479;-64
2021/12/17 08:34:33;;;;;;;24.55;12.82;;;;;;;5.69;100.00;102188.13;5107060;28;20102;-64
2021/12/17 08:36:59;;;;;;;23.30;12.75;;;;;;;5.80;100.00;102182.22;5111206;28;20027;-64
2021/12/17 08:39:26;;;;;;;23.10;12.52;;;;;;;5.79;100.00;102174.28;5110604;28;20034;-64
2021/12/17 08:41:54;;;;;;;23.60;12.50;;;;;;;5.86;100.00;102177.13;5096143;28;20062;-65
2021/12/17 08:44:21;;;;;;;22.92;13.75;;;;;;;6.01;100.00;102176.56;5094481;28;20130;-64
2021/12/17 08:46:46;;;;;;;26.92;16.98;;;;;;;6.04;100.00;102176.63;5092420;28;20098;-65
2021/12/17 08:49:12;;;;;;;23.83;13.20;;;;;;;6.72;100.00;102169.97;5106037;28;20112;-65
2021/12/17 08:51:38;;;;;;;24.50;13.65;;;;;;;8.41;100.00;102189.19;5104024;28;20063;-65
2021/12/17 08:54:05;;;;;;;29.42;15.18;;;;;;;10.45;97.10;102179.97;5096694;28;20031;-64
2021/12/17 08:56:33;;;;;;;24.02;14.23;;;;;;;12.08;73.36;102177.16;5108705;28;20539;-64
2021/12/17 08:59:02;;;;;;;21.60;13.32;;;;;;;12.94;63.86;102174.84;5105397;28;20434;-64
2021/12/17 09:01:28;;;;;;;21.50;11.98;;;;;;;13.99;56.71;102180.94;5097255;28;20055;-64
2021/12/17 09:03:53;;;;;;;21.05;12.05;;;;;;;14.04;53.75;102188.91;5107525;28;20020;-64
2021/12/17 09:06:22;;;;;;;18.05;11.80;;;;;;;14.45;56.11;102191.97;5110413;28;20364;-64
2021/12/17 09:08:49;;;;;;;20.33;11.73;;;;;;;15.58;51.94;102191.00;5109577;28;20024;-64
2021/12/17 09:11:14;;;;;;;16.08;10.45;;;;;;;16.70;49.76;102196.78;5097085;28;20100;-64
2021/12/17 09:13:40;;;;;;;16.73;8.93;;;;;;;17.81;47.02;102193.91;5091433;28;20031;-64
2021/12/17 09:16:06;;;;;;;15.05;8.50;;;;;;;17.86;45.75;102197.38;5089970;28;20056;-64
2021/12/17 09:18:34;;;;;;;14.30;8.32;;;;;;;18.27;44.64;102199.75;5091246;28;20107;-64
2021/12/17 09:20:59;;;;;;;13.82;7.95;;;;;;;18.51;43.88;102197.28;5109432;28;20098;-64
2021/12/17 09:23:25;;;;;;;13.90;8.18;;;;;;;18.76;42.87;102195.59;5110201;28;20111;-64
2021/12/17 09:25:50;;;;;;;18.95;9.75;;;;;;;18.92;42.72;102205.84;5106699;28;20364;-64
2021/12/17 09:28:16;;;;;;;16.23;9.07;;;;;;;19.68;42.40;102204.19;5093329;28;20036;-64
2021/12/17 09:30:42;;;;;;;13.07;8.70;;;;;;;20.35;40.38;102211.63;5090009;28;20056;-64
2021/12/17 09:33:07;;;;;;;16.77;8.75;;;;;;;20.10;39.72;102210.72;5090772;28;20103;-64
2021/12/17 09:35:33;;;;;;;13.45;7.57;;;;;;;20.01;41.19;102221.00;5099099;28;20023;-64
2021/12/17 09:37:58;;;;;;;13.40;8.93;;;;;;;20.85;39.93;102205.13;5104892;28;20065;-64
2021/12/17 09:40:24;;;;;;;14.07;8.90;;;;;;;21.67;38.18;102205.25;5109722;28;20079;-64
2021/12/17 09:42:50;;;;;;;12.43;7.85;;;;;;;22.17;37.56;102205.75;5114555;28;20028;-64
2021/12/17 09:45:17;;;;;;;14.57;7.72;;;;;;;22.33;35.99;102212.22;5112386;28;20028;-64
2021/12/17 09:47:44;;;;;;;11.63;7.30;;;;;;;21.77;36.78;102209.38;5104789;28;20027;-64
2021/12/17 09:50:11;;;;;;;15.50;8.50;;;;;;;21.81;37.67;102215.53;5113114;28;20084;-64
2021/12/17 09:52:37;;;;;;;14.75;8.48;;;;;;;22.27;37.35;102212.50;5103870;28;20036;-64
2021/12/17 09:55:05;;;;;;;14.27;8.07;;;;;;;21.97;37.36;102205.78;5092427;28;20441;-64
2021/12/17 09:57:35;;;;;;;18.13;9.35;;;;;;;21.63;38.53;102216.31;5094292;28;20402;-64
2021/12/17 10:00:09;;;;;;;18.60;9.45;;;;;;;21.94;37.78;102205.91;5105535;28;20065;-64
2021/12/17 10:02:35;;;;;;;13.35;8.15;;;;;;;22.40;37.19;102199.25;5113238;28;20459;-64
2021/12/17 10:05:00;;;;;;;15.10;8.63;;;;;;;22.82;36.89;102192.69;5114230;28;20055;-64
2021/12/17 10:07:29;;;;;;;13.68;7.55;;;;;;;23.22;35.63;102197.91;5107048;27;20028;-64
2021/12/17 10:09:56;;;;;;;12.55;7.82;;;;;;;23.67;35.07;102188.38;5110101;28;20027;-64
2021/12/17 10:12:26;;;;;;;14.15;7.75;;;;;;;23.62;35.10;102190.47;5113371;28;20084;-64
2021/12/17 10:15:05;;;;;;;12.02;7.70;;;;;;;23.77;35.16;102184.22;5113870;28;20051;-64
2021/12/17 10:17:31;;;;;;;12.32;7.95;;;;;;;23.93;34.64;102182.44;5103414;28;20085;-64
2021/12/17 10:19:57;;;;;;;12.00;7.10;;;;;;;24.28;33.68;102176.88;5113097;28;20023;-65
2021/12/17 10:22:25;;;;;;;11.88;6.10;;;;;;;24.34;32.85;102170.22;5104603;28;20035;-64
2021/12/17 10:25:06;;;;;;;9.60;5.72;;;;;;;24.42;34.03;102162.50;5097236;28;20027;-64
2021/12/17 10:27:35;;;;;;;11.15;6.22;;;;;;;24.49;33.90;102161.22;5092787;28;20035;-64
2021/12/17 10:30:08;;;;;;;13.82;7.70;;;;;;;24.26;34.51;102164.34;5097340;28;20028;-66
2021/12/17 10:32:33;;;;;;;9.38;6.00;;;;;;;24.06;33.35;102170.88;5092015;28;20043;-66
2021/12/17 10:35:11;;;;;;;9.63;6.20;;;;;;;24.18;33.96;102158.44;5098038;28;20106;-66
2021/12/17 10:37:40;;;;;;;10.50;6.57;;;;;;;24.17;33.61;102159.38;5109211;27;20372;-66
2021/12/17 10:40:20;;;;;;;12.93;6.75;;;;;;;24.30;34.03;102168.66;5115215;27;20027;-66
2021/12/17 10:42:55;;;;;;;10.52;5.35;;;;;;;24.06;34.26;102169.97;5111284;28;20391;-66
2021/12/17 10:45:27;;;;;;;7.88;5.00;;;;;;;23.20;34.76;102160.91;5096764;28;20102;-66
2021/12/17 10:48:24;;;;;;;9.13;5.63;;;;;;;23.21;36.21;102157.25;5099079;28;20026;-66
2021/12/17 10:50:53;;;;;;;8.50;5.22;;;;;;;23.47;35.01;102153.22;5110930;28;20122;-66
2021/12/17 10:53:25;;;;;;;8.30;5.30;;;;;;;23.54;35.35;102151.94;5112161;28;20024;-66
2021/12/17 10:55:53;;;;;;;8.82;4.63;;;;;;;23.75;36.01;102156.25;5112642;28;20024;-65
2021/12/17 10:58:19;;;;;;;8.45;5.20;;;;;;;23.70;35.09;102155.63;5108720;28;20028;-66
2021/12/17 11:00:49;;;;;;;6.78;3.95;;;;;;;23.84;34.45;102162.06;5100985;28;20042;-66
2021/12/17 11:03:15;;;;;;;7.93;4.28;;;;;;;23.41;35.88;102155.28;5091911;28;20483;-65
2021/12/17 11:05:41;;;;;;;7.88;4.05;;;;;;;23.56;35.48;102160.91;5092707;28;20023;-65
2021/12/17 11:08:30;;;;;;;7.68;3.90;;;;;;;23.29;35.65;102161.34;5094752;28;20597;-66
2021/12/17 11:11:07;;;;;;;7.93;3.90;;;;;;;23.28;35.51;102143.31;5111729;28;20035;-66
2021/12/17 11:13:33;;;;;;;6.57;4.00;;;;;;;23.13;36.79;102144.06;5112419;28;20106;-66
2021/12/17 11:15:59;;;;;;;6.57;3.38;;;;;;;22.79;37.11;102133.13;5111109;27;20048;-66
2021/12/17 11:18:26;;;;;;;7.72;4.57;;;;;;;22.46;37.80;102147.41;5103626;28;20093;-66
2021/12/17 11:20:56;;;;;;;7.18;3.47;;;;;;;22.35;37.73;102142.53;5091615;28;20027;-66
2021/12/17 11:23:23;;;;;;;6.70;3.20;;;;;;;22.71;36.77;102140.78;5092126;28;20039;-66
2021/12/17 11:25:50;;;;;;;5.97;2.97;;;;;;;22.15;37.60;102138.03;5093313;28;20019;-66
2021/12/17 11:28:16;;;;;;;6.32;2.90;;;;;;;21.81;37.90;102150.50;5096489;28;20032;-66
2021/12/17 11:30:44;;;;;;;7.07;4.10;;;;;;;21.73;38.39;102152.66;5091056;28;20365;-66
2021/12/17 11:33:10;;;;;;;6.15;3.45;;;;;;;21.32;38.08;102153.56;5098705;28;20019;-66
2021/12/17 11:35:38;;;;;;;5.63;3.20;;;;;;;21.78;38.96;102150.63;5111763;28;20032;-66
2021/12/17 11:38:37;;;;;;;5.20;2.78;;;;;;;21.79;39.02;102147.88;5105039;28;20030;-66
2021/12/17 11:41:18;;;;;;;6.05;3.25;;;;;;;21.11;38.79;102147.25;5094810;28;20025;-66
2021/12/17 11:44:12;;;;;;;7.32;3.63;;;;;;;20.79;38.64;102145.84;5112194;28;20032;-66
2021/12/17 11:46:38;;;;;;;7.30;4.05;;;;;;;20.75;39.54;102136.09;5110378;28;20514;-66
2021/12/17 11:49:11;;;;;;;6.70;3.70;;;;;;;20.57;39.71;102128.72;5110056;28;20028;-66
2021/12/17 11:51:37;;;;;;;;;;;;;;;20.69;39.13;102124.66;5103662;28;20027;-66
2021/12/17 11:54:10;;;;;;;5.88;3.00;;;;;;;20.65;39.69;102120.28;5111199;28;19949;-66
2021/12/17 11:56:41;;;;;;;4.85;2.83;;;;;;;20.02;40.35;102120.97;5111891;28;20391;-66
2021/12/17 11:59:10;;;;;;;4.80;2.60;;;;;;;20.06;41.07;102116.34;5104272;28;20154;-66
2021/12/17 12:01:49;;;;;;;5.13;2.92;;;;;;;20.18;40.53;102119.47;5096563;28;20031;-66
2021/12/17 12:04:34;;;;;;;5.78;3.03;;;;;;;19.76;40.09;102120.19;5090567;28;20032;-67
2021/12/17 12:07:04;;;;;;;5.20;3.40;;;;;;;18.81;42.48;102123.53;5091534;28;20027;-67
2021/12/17 12:09:58;;;;;;;5.18;2.78;;;;;;;17.20;45.81;102126.50;5099800;28;20028;-66
2021/12/17 12:12:50;;;;;;;7.10;3.58;;;;;;;16.10;48.10;102134.50;5111286;28;20049;-66
2021/12/17 12:15:27;;;;;;;7.18;3.55;;;;;;;15.08;51.75;102129.34;5111440;28;20807;-66
2021/12/17 12:18:18;;;;;;;6.78;3.53;;;;;;;14.53;52.80;102120.44;5098387;28;20055;-66
2021/12/17 12:20:47;;;;;;;6.13;3.72;;;;;;;14.12;55.51;102133.50;5090950;28;20028;-65
2021/12/17 12:23:31;;;;;;;7.07;3.78;;;;;;;13.64;56.67;102124.28;5090566;28;20035;-65
2021/12/17 12:26:02;;;;;;;;;;;;;;;13.42;59.38;102117.44;5097440;28;20391;-65
2021/12/17 12:28:47;;;;;;;5.57;3.28;;;;;;;13.30;60.57;102119.31;5103286;28;20283;-65
2021/12/17 12:31:37;;;;;;;6.93;3.53;;;;;;;12.96;60.96;102118.75;5088925;28;20422;-65
2021/12/17 12:36:55;;;;;;;5.55;3.58;;;;;;;12.70;64.15;102118.94;5109693;28;20551;-64
2021/12/17 12:39:27;;;;;;;7.40;3.72;;;;;;;12.55;65.00;102113.72;5106342;28;20038;-64
2021/12/17 12:42:07;;;;;;;7.35;4.15;;;;;;;12.49;65.22;102102.19;5090129;28;20028;-64
2021/12/17 12:44:44;;;;;;;7.32;3.70;;;;;;;12.34;65.57;102102.34;5091091;28;20078;-64
2021/12/17 12:47:14;;;;;;;8.70;3.97;;;;;;;12.40;66.43;102103.19;5095418;28;20024;-64
2021/12/17 12:49:45;;;;;;;9.13;4.28;;;;;;;12.34;66.80;102105.00;5100013;28;20498;-64
2021/12/17 12:52:20;;;;;;;8.48;4.13;;;;;;;12.20;66.42;102102.41;5088161;28;20065;-64
2021/12/17 12:54:50;;;;;;;7.82;3.88;;;;;;;12.11;67.90;102104.25;5097828;28;20527;-62
2021/12/17 12:57:36;;;;;;;6.97;3.88;;;;;;;12.10;68.33;102118.47;5090068;28;20115;-62
2021/12/17 13:00:08;;;;;;;7.50;4.05;;;;;;;12.05;68.08;102113.16;5093666;28;20111;-63
2021/12/17 13:02:34;;;;;;;6.30;3.78;;;;;;;12.06;69.09;102109.59;5092956;28;20038;-63
2021/12/17 13:05:00;;;;;;;8.23;4.50;;;;;;;12.03;68.72;102114.03;5108092;28;20487;-64
2021/12/17 13:07:32;;;;;;;8.23;3.63;;;;;;;11.98;69.37;102114.06;5103172;28;20143;-64
2021/12/17 13:10:18;;;;;;;6.85;3.28;;;;;;;11.88;69.99;102112.34;5099578;28;20031;-64
2021/12/17 13:13:36;;;;;;;7.50;3.85;;;;;;;11.95;70.65;102108.75;5093809;28;20387;-64
2021/12/17 13:21:35;;;;;;;7.07;3.88;;;;;;;11.70;70.99;102107.09;5104227;28;20027;-64
2021/12/17 13:24:18;;;;;;;8.73;4.70;;;;;;;11.71;70.92;102103.56;5094057;28;20028;-64
2021/12/17 13:27:00;;;;;;;7.40;3.85;;;;;;;11.68;72.02;102108.88;5094099;28;20173;-64
2021/12/17 13:29:33;;;;;;;10.95;6.20;;;;;;;11.62;71.68;102108.88;5100026;28;20170;-63
2021/12/17 13:32:03;;;;;;;30.55;13.23;;;;;;;11.59;71.32;102104.44;5100725;27;20067;-64
2021/12/17 13:34:41;;;;;;;30.40;10.82;;;;;;;11.50;71.79;102092.91;5094461;28;20030;-64
2021/12/17 13:37:15;;;;;;;34.40;13.90;;;;;;;11.48;71.90;102105.38;5109217;28;20168;-63
2021/12/17 13:39:49;;;;;;;23.83;10.75;;;;;;;11.40;73.04;102099.19;5113733;28;20032;-64
2021/12/17 13:42:46;;;;;;;38.60;13.88;;;;;;;11.32;73.10;102103.63;5104045;28;20517;-64
2021/12/17 13:45:17;;;;;;;40.25;13.50;;;;;;;11.40;73.19;102093.84;5113875;28;20027;-64
2021/12/17 13:47:56;;;;;;;68.60;24.48;;;;;;;11.29;73.75;102098.31;5114491;28;20485;-64
2021/12/17 13:50:30;;;;;;;67.03;22.27;;;;;;;11.32;73.23;102092.97;5108777;28;20099;-64
2021/12/17 13:53:03;;;;;;;65.10;20.45;;;;;;;11.27;73.76;102079.66;5110869;28;20032;-64
2021/12/17 13:55:36;;;;;;;70.30;23.58;;;;;;;11.25;73.71;102086.75;5111378;28;20016;-63
2021/12/17 13:58:06;;;;;;;;;;;;;;;11.26;75.00;102093.88;5104576;28;20486;-64
2021/12/17 14:00:53;;;;;;;71.68;24.73;;;;;;;11.21;74.68;102084.13;5113325;27;19908;-63
2021/12/17 14:03:22;;;;;;;77.90;26.25;;;;;;;11.18;75.23;102076.16;5114296;28;20149;-64
2021/12/17 14:05:57;;;;;;;48.97;19.98;;;;;;;11.06;76.34;102084.16;5104522;28;20475;-64
2021/12/17 14:08:23;;;;;;;43.55;13.85;;;;;;;11.03;76.20;102092.16;5114303;28;20057;-64
2021/12/17 14:10:53;;;;;;;66.75;23.63;;;;;;;10.88;75.16;102085.06;5113519;28;20023;-64